Time;durP1;ratioP1;P1;durP2;ratioP2;P2;SDS_P1;SDS_P2;PMS_P1;PMS_P2;Temp;Humidity;BMP_temperature;BMP_pressure;BME280_temperature;BME280_humidity;BME280_pressure;Samples;Min_cycle;Max_cycle;Signal;HPM_P1;HPM_P2
2021/12/24 00:00:37;;;;;;;7.25;5.65;;;-11.00;79.70;;;;;;5034851;28;20041;-71
2021/12/24 00:03:04;;;;;;;5.25;4.68;;;-11.00;79.80;;;;;;5038367;28;20022;-71
2021/12/24 00:05:30;;;;;;;7.00;5.13;;;-10.90;80.00;;;;;;5034099;28;20030;-73
2021/12/24 00:07:55;;;;;;;7.47;5.97;;;-10.90;79.90;;;;;;5034793;28;20032;-71
2021/12/24 00:10:21;;;;;;;8.18;6.45;;;-10.90;79.60;;;;;;5033169;28;20468;-69
2021/12/24 00:12:56;;;;;;;7.55;5.60;;;-10.90;79.50;;;;;;5035452;28;20128;-73
2021/12/24 00:18:21;;;;;;;4.38;4.07;;;-10.90;79.60;;;;;;5034349;28;20033;-70
2021/12/24 00:36:53;;;;;;;7.45;5.20;;;-11.00;78.90;;;;;;5034398;28;20506;-71
2021/12/24 00:39:19;;;;;;;7.03;6.22;;;-11.00;78.90;;;;;;5034138;28;20029;-72
2021/12/24 00:41:45;;;;;;;7.47;6.75;;;-11.00;79.00;;;;;;5033908;28;20043;-72
2021/12/24 00:44:11;;;;;;;7.28;6.68;;;-11.10;78.90;;;;;;5032738;28;20056;-71
2021/12/24 00:46:37;;;;;;;8.65;5.50;;;-11.10;78.90;;;;;;5033661;28;20061;-71
2021/12/24 00:49:03;;;;;;;11.45;7.05;;;-11.10;79.10;;;;;;5046318;28;20091;-71
2021/12/24 00:51:54;;;;;;;10.30;6.35;;;-11.10;79.30;;;;;;5053647;28;20033;-74
2021/12/24 00:56:59;;;;;;;7.95;6.53;;;-11.00;79.50;;;;;;5050575;28;20028;-71
2021/12/24 00:59:24;;;;;;;18.60;4.53;;;-11.00;79.50;;;;;;5034989;28;20096;-71
2021/12/24 01:01:50;;;;;;;9.10;8.48;;;-11.00;79.40;;;;;;5033923;28;20041;-72
2021/12/24 01:04:16;;;;;;;8.32;5.20;;;-11.00;79.20;;;;;;5034545;28;20022;-70
2021/12/24 01:06:42;;;;;;;7.30;5.20;;;-11.10;79.10;;;;;;5033811;28;20407;-72
2021/12/24 01:09:08;;;;;;;5.85;5.28;;;-11.10;79.00;;;;;;5032390;28;20054;-71
2021/12/24 01:11:33;;;;;;;8.98;6.72;;;-11.10;79.20;;;;;;5031987;28;20073;-74
2021/12/24 01:13:59;;;;;;;4.85;4.35;;;-11.00;79.40;;;;;;5033853;28;20395;-71
2021/12/24 01:19:05;;;;;;;4.03;3.67;;;-11.00;79.00;;;;;;5051238;28;20101;-71
2021/12/24 01:24:24;;;;;;;4.53;4.15;;;-11.10;78.80;;;;;;5061880;28;20455;-72
2021/12/24 01:40:20;;;;;;;8.25;5.88;;;-11.10;78.90;;;;;;5034124;28;20036;-74
2021/12/24 01:42:48;;;;;;;7.07;5.60;;;-11.10;79.00;;;;;;5033001;28;20048;-69
2021/12/24 01:45:25;;;;;;;6.78;5.38;;;-11.10;79.20;;;;;;5032248;28;20375;-72
2021/12/24 01:47:54;;;;;;;7.55;5.60;;;-11.00;79.40;;;;;;5032157;28;20029;-72
2021/12/24 01:50:21;;;;;;;8.32;6.55;;;-11.00;79.50;;;;;;5032175;28;20029;-75
2021/12/24 01:52:49;;;;;;;5.97;5.22;;;-11.00;79.70;;;;;;5033254;28;20348;-69
2021/12/24 01:55:16;;;;;;;10.07;5.25;;;-11.00;79.70;;;;;;5031923;28;20025;-70
2021/12/24 01:57:42;;;;;;;7.03;5.68;;;-10.90;79.90;;;;;;5033806;28;20029;-69
2021/12/24 02:00:12;;;;;;;5.93;4.90;;;-10.90;79.70;;;;;;5033822;28;20017;-72
2021/12/24 02:02:38;;;;;;;9.40;6.10;;;-10.90;79.90;;;;;;5032095;28;20028;-72
2021/12/24 02:05:04;;;;;;;6.82;4.13;;;-10.90;80.00;;;;;;5036629;28;20037;-71
2021/12/24 02:07:29;;;;;;;9.18;5.75;;;-10.80;79.90;;;;;;5053375;28;20043;-71
2021/12/24 02:09:55;;;;;;;4.53;4.22;;;-10.80;79.70;;;;;;5045362;28;20033;-71
2021/12/24 02:12:24;;;;;;;7.47;5.28;;;-10.80;79.70;;;;;;5035234;28;20045;-74
2021/12/24 02:14:53;;;;;;;6.70;5.32;;;-10.80;79.70;;;;;;5035847;28;20423;-72
2021/12/24 02:30:43;;;;;;;11.38;6.10;;;-10.70;79.70;;;;;;5048942;28;20490;-71
2021/12/24 02:33:09;;;;;;;5.20;4.72;;;-10.70;79.90;;;;;;5034771;28;20034;-72
2021/12/24 02:35:36;;;;;;;5.22;4.38;;;-10.60;79.90;;;;;;5035054;28;20032;-72
2021/12/24 02:38:03;;;;;;;3.97;3.75;;;-10.60;80.10;;;;;;5035162;28;20040;-71
2021/12/24 02:40:30;;;;;;;6.25;5.43;;;-10.60;80.00;;;;;;5034865;28;20099;-71
2021/12/24 02:42:57;;;;;;;7.28;6.00;;;-10.60;79.90;;;;;;5034861;28;20140;-72
2021/12/24 02:45:25;;;;;;;5.43;4.93;;;-10.70;79.80;;;;;;5036016;28;20367;-77
2021/12/24 02:55:30;;;;;;;5.97;4.93;;;-10.60;79.80;;;;;;5036149;28;20036;-74
2021/12/24 02:57:56;;;;;;;10.27;6.78;;;-10.60;79.70;;;;;;5038265;28;20025;-72
2021/12/24 03:00:26;;;;;;;9.18;6.63;;;-10.50;79.90;;;;;;5034426;28;20029;-70
2021/12/24 03:02:52;;;;;;;10.38;6.65;;;-10.50;80.00;;;;;;5054920;28;20083;-72
2021/12/24 03:05:21;;;;;;;8.38;6.28;;;-10.50;80.10;;;;;;5054698;28;20025;-72
2021/12/24 03:07:47;;;;;;;5.70;4.97;;;-10.50;80.10;;;;;;5055565;28;20061;-68
2021/12/24 03:10:16;;;;;;;6.13;5.45;;;-10.50;80.20;;;;;;5055237;28;20036;-68
2021/12/24 03:12:45;;;;;;;5.45;4.63;;;-10.50;80.20;;;;;;5052325;28;20048;-71
2021/12/24 03:15:13;;;;;;;5.57;4.40;;;-10.40;80.30;;;;;;5054162;28;20025;-72
2021/12/24 03:17:39;;;;;;;6.72;4.13;;;-10.40;80.30;;;;;;5049324;28;20029;-72
2021/12/24 03:20:09;;;;;;;8.52;5.35;;;-10.40;80.20;;;;;;5035045;28;20021;-72
2021/12/24 03:25:20;;;;;;;4.32;3.95;;;-10.40;80.10;;;;;;5035234;28;20032;-72
2021/12/24 03:27:46;;;;;;;5.50;4.88;;;-10.30;80.10;;;;;;5035318;28;20026;-72
2021/12/24 03:30:12;;;;;;;7.25;6.10;;;-10.30;80.00;;;;;;5034420;28;20444;-71
2021/12/24 03:32:38;;;;;;;14.95;5.15;;;-10.30;80.00;;;;;;5033935;28;20053;-72
2021/12/24 03:35:05;;;;;;;7.95;5.63;;;-10.30;80.10;;;;;;5033461;28;20491;-73
2021/12/24 03:37:30;;;;;;;4.60;4.20;;;-10.30;80.00;;;;;;5054312;28;20036;-71
2021/12/24 03:39:56;;;;;;;6.30;5.03;;;-10.30;79.90;;;;;;5043335;28;20030;-71
2021/12/24 03:42:23;;;;;;;8.45;5.82;;;-10.20;79.90;;;;;;5035180;28;20167;-72
2021/12/24 03:45:05;;;;;;;4.72;4.43;;;-10.20;79.90;;;;;;5033654;28;20029;-72
2021/12/24 03:47:36;;;;;;;3.88;3.65;;;-10.30;79.90;;;;;;5033768;28;20030;-71
2021/12/24 03:50:08;;;;;;;4.60;3.58;;;-10.20;79.80;;;;;;5041779;28;20110;-70
2021/12/24 03:52:51;;;;;;;8.55;5.53;;;-10.20;80.10;;;;;;5054656;28;20495;-71
2021/12/24 03:55:17;;;;;;;7.05;5.05;;;-10.10;80.20;;;;;;5053740;28;20040;-72
2021/12/24 03:57:43;;;;;;;5.82;4.95;;;-10.10;80.20;;;;;;5054434;28;20152;-72
2021/12/24 04:00:20;;;;;;;10.18;5.10;;;-10.00;80.20;;;;;;5054520;28;20025;-70
2021/12/24 04:02:46;;;;;;;5.45;4.30;;;-10.00;80.10;;;;;;5034410;28;20152;-68
2021/12/24 04:05:12;;;;;;;5.45;4.65;;;-10.00;80.10;;;;;;5034854;28;20033;-69
2021/12/24 04:07:38;;;;;;;5.00;4.50;;;-9.90;80.30;;;;;;5043559;28;20384;-70
2021/12/24 04:12:40;;;;;;;8.43;4.10;;;-9.90;80.20;;;;;;5054147;28;20060;-72
2021/12/24 04:15:06;;;;;;;7.18;4.95;;;-9.80;80.30;;;;;;5053743;28;20082;-76
2021/12/24 04:17:34;;;;;;;6.43;5.18;;;-9.70;80.50;;;;;;5053921;28;20024;-73
2021/12/24 04:25:25;;;;;;;11.43;6.60;;;-9.40;80.30;;;;;;5054170;28;20043;-72
2021/12/24 04:27:52;;;;;;;7.95;5.28;;;-9.30;80.40;;;;;;5049050;28;20426;-70
2021/12/24 04:30:24;;;;;;;7.28;5.57;;;-9.30;80.40;;;;;;5032762;28;20029;-73
2021/12/24 04:32:59;;;;;;;6.20;3.78;;;-9.20;80.40;;;;;;5049519;28;20065;-72
2021/12/24 04:51:22;;;;;;;7.20;4.65;;;-8.80;79.70;;;;;;5054666;28;20028;-73
2021/12/24 05:04:33;;;;;;;8.20;6.22;;;-8.50;79.40;;;;;;5033637;28;20037;-71
2021/12/24 05:07:09;;;;;;;7.57;5.20;;;-8.50;79.40;;;;;;5033299;28;20108;-72
2021/12/24 05:09:39;;;;;;;5.47;4.38;;;-8.50;79.40;;;;;;5032140;28;20037;-68
2021/12/24 05:12:05;;;;;;;3.58;3.28;;;-8.40;79.50;;;;;;5046571;28;20044;-68
2021/12/24 05:14:31;;;;;;;7.40;4.97;;;-8.40;79.50;;;;;;5053765;28;20411;-70
2021/12/24 05:17:19;;;;;;;6.45;4.85;;;-8.30;79.60;;;;;;5051306;28;20033;-70
2021/12/24 05:22:32;;;;;;;6.10;4.38;;;-8.20;79.20;;;;;;5033433;28;19963;-72
2021/12/24 05:24:59;;;;;;;7.65;5.47;;;-8.30;79.20;;;;;;5033663;28;20037;-73
2021/12/24 05:27:25;;;;;;;7.35;5.00;;;-8.20;79.30;;;;;;5032082;28;20052;-74
2021/12/24 05:29:51;;;;;;;13.15;8.60;;;-8.20;79.20;;;;;;5033368;28;20026;-73
2021/12/24 05:32:16;;;;;;;7.35;5.30;;;-8.20;79.20;;;;;;5033852;28;20029;-74
2021/12/24 05:34:42;;;;;;;6.45;4.82;;;-8.20;79.20;;;;;;5032541;28;20032;-74
2021/12/24 05:37:08;;;;;;;5.85;3.65;;;-8.20;79.50;;;;;;5037488;28;20032;-74
2021/12/24 05:39:34;;;;;;;11.27;6.07;;;-8.20;79.50;;;;;;5033735;28;20039;-73
2021/12/24 05:42:00;;;;;;;6.40;4.68;;;-8.10;79.70;;;;;;5033118;28;20037;-74
2021/12/24 05:44:26;;;;;;;7.55;5.40;;;-8.10;79.40;;;;;;5035490;28;20025;-70
2021/12/24 05:46:52;;;;;;;3.72;3.08;;;-8.10;79.20;;;;;;5038109;28;20385;-74
2021/12/24 05:49:18;;;;;;;5.25;4.68;;;-8.10;79.00;;;;;;5037657;28;20037;-77
2021/12/24 05:51:44;;;;;;;24.52;10.23;;;-8.10;79.20;;;;;;5035110;28;20049;-79
2021/12/24 05:54:10;;;;;;;12.98;6.88;;;-8.10;79.40;;;;;;5042846;28;20108;-80
2021/12/24 05:56:36;;;;;;;15.63;9.13;;;-8.00;79.40;;;;;;5044291;28;20021;-82
2021/12/24 05:59:02;;;;;;;7.78;4.93;;;-8.10;79.10;;;;;;5038435;28;20446;-81
2021/12/24 06:01:28;;;;;;;6.03;4.32;;;-8.00;79.00;;;;;;5041058;28;20037;-81
2021/12/24 06:03:54;;;;;;;7.05;4.57;;;-8.10;78.90;;;;;;5040192;28;20026;-76
2021/12/24 06:06:20;;;;;;;10.55;4.45;;;-8.00;79.00;;;;;;5041309;28;20025;-74
2021/12/24 06:08:46;;;;;;;6.47;3.50;;;-8.10;78.90;;;;;;5045486;28;20018;-78
2021/12/24 06:11:11;;;;;;;3.58;3.17;;;-8.00;78.90;;;;;;5054159;28;20063;-79
2021/12/24 06:13:37;;;;;;;6.38;4.50;;;-8.10;78.80;;;;;;5040550;28;20048;-76
2021/12/24 06:16:05;;;;;;;4.40;3.38;;;-8.00;79.00;;;;;;5044957;28;20028;-76
2021/12/24 06:18:31;;;;;;;4.28;3.67;;;-8.00;79.00;;;;;;5039069;28;20056;-77
2021/12/24 06:21:01;;;;;;;9.18;4.90;;;-7.90;79.10;;;;;;5041733;28;20049;-73
2021/12/24 06:23:28;;;;;;;8.48;4.70;;;-7.90;79.00;;;;;;5042169;28;20048;-76
2021/12/24 06:25:55;;;;;;;7.38;4.13;;;-7.80;78.90;;;;;;5042663;28;20038;-69
2021/12/24 06:28:22;;;;;;;8.38;4.93;;;-7.80;78.60;;;;;;5044873;28;20528;-73
2021/12/24 06:30:48;;;;;;;8.35;3.47;;;-7.90;78.40;;;;;;5042049;28;20486;-76
2021/12/24 06:33:14;;;;;;;7.68;5.35;;;-7.90;78.40;;;;;;5038829;28;20079;-72
2021/12/24 06:35:41;;;;;;;6.55;4.38;;;-7.90;78.60;;;;;;5043819;28;20495;-72
2021/12/24 06:38:07;;;;;;;10.18;5.45;;;-7.80;78.60;;;;;;5041987;28;20029;-71
2021/12/24 06:40:33;;;;;;;5.18;4.25;;;-7.80;78.60;;;;;;5044997;28;20167;-72
2021/12/24 06:42:59;;;;;;;6.78;4.45;;;-7.80;78.50;;;;;;5047317;28;20091;-74
2021/12/24 06:45:27;;;;;;;8.85;5.65;;;-7.80;78.60;;;;;;5039450;28;20036;-75
2021/12/24 06:47:55;;;;;;;5.68;5.18;;;-7.70;78.70;;;;;;5038345;28;20116;-72
2021/12/24 06:50:21;;;;;;;8.75;5.72;;;-7.70;78.80;;;;;;5053392;28;20527;-70
2021/12/24 06:52:47;;;;;;;6.03;5.00;;;-7.60;78.90;;;;;;5042726;28;20134;-71
2021/12/24 06:55:13;;;;;;;7.40;4.63;;;-7.60;78.80;;;;;;5045657;28;20036;-71
2021/12/24 06:57:41;;;;;;;29.63;13.75;;;-7.50;78.70;;;;;;5035215;28;20033;-72
2021/12/24 07:00:10;;;;;;;26.17;12.63;;;-7.50;78.60;;;;;;5041830;28;21250;-75
2021/12/24 07:02:36;;;;;;;5.43;4.15;;;-7.40;78.40;;;;;;5039336;28;20123;-68
2021/12/24 07:05:02;;;;;;;14.02;7.07;;;-7.40;78.20;;;;;;5040853;28;20519;-73
2021/12/24 07:07:28;;;;;;;9.45;4.05;;;-7.40;78.30;;;;;;5043307;28;20139;-76
2021/12/24 07:09:54;;;;;;;11.85;5.65;;;-7.40;78.40;;;;;;5040504;28;20138;-71
2021/12/24 07:12:20;;;;;;;14.07;5.88;;;-7.40;78.60;;;;;;5038431;28;20049;-77
2021/12/24 07:14:47;;;;;;;9.30;5.55;;;-7.30;78.60;;;;;;5041788;28;20025;-78
2021/12/24 07:17:12;;;;;;;13.20;4.40;;;-7.20;78.50;;;;;;5043131;28;20017;-75
2021/12/24 07:19:38;;;;;;;18.77;5.95;;;-7.20;78.30;;;;;;5047457;28;20071;-75
2021/12/24 07:22:04;;;;;;;12.38;6.65;;;-7.20;78.30;;;;;;5043433;28;20446;-75
2021/12/24 07:24:30;;;;;;;8.90;4.90;;;-7.20;78.10;;;;;;5039242;28;20033;-73
2021/12/24 07:26:55;;;;;;;10.23;6.10;;;-7.20;78.20;;;;;;5041477;28;20128;-73
2021/12/24 07:29:21;;;;;;;14.60;6.55;;;-7.10;78.40;;;;;;5035573;28;20072;-71
2021/12/24 07:31:47;;;;;;;14.48;6.47;;;-7.10;78.60;;;;;;5049139;28;20029;-72
2021/12/24 07:34:13;;;;;;;12.60;6.93;;;-7.00;78.80;;;;;;5054838;28;20517;-74
2021/12/24 07:36:39;;;;;;;9.18;5.88;;;-7.00;78.70;;;;;;5055671;28;20025;-72
2021/12/24 07:39:05;;;;;;;11.57;6.68;;;-6.90;78.80;;;;;;5047058;28;20065;-72
2021/12/24 07:41:31;;;;;;;14.18;7.07;;;-6.90;78.90;;;;;;5038081;28;20068;-72
2021/12/24 07:43:57;;;;;;;8.30;5.63;;;-6.80;78.90;;;;;;5042585;28;20037;-69
2021/12/24 07:46:30;;;;;;;10.02;6.35;;;-6.80;79.00;;;;;;5035967;28;20387;-77
2021/12/24 07:49:01;;;;;;;12.38;6.53;;;-6.70;79.20;;;;;;5042596;28;20025;-71
2021/12/24 07:54:11;;;;;;;16.05;8.57;;;-6.60;79.20;;;;;;5038586;28;20186;-75
2021/12/24 07:56:37;;;;;;;9.80;6.85;;;-6.60;79.30;;;;;;5048462;28;20115;-70
2021/12/24 07:59:03;;;;;;;10.77;6.90;;;-6.50;79.40;;;;;;5038378;28;20037;-71
2021/12/24 08:01:29;;;;;;;13.35;7.57;;;-6.50;79.50;;;;;;5048659;28;20098;-70
2021/12/24 08:03:56;;;;;;;8.32;6.07;;;-6.50;79.70;;;;;;5044234;28;20056;-73
2021/12/24 08:06:25;;;;;;;14.55;7.95;;;-6.40;80.10;;;;;;5036845;28;20530;-72
2021/12/24 08:08:50;;;;;;;7.38;5.72;;;-6.40;80.50;;;;;;5033991;28;20042;-71
2021/12/24 08:11:16;;;;;;;9.77;6.05;;;-6.30;80.80;;;;;;5036474;28;20024;-69
2021/12/24 08:13:42;;;;;;;10.80;7.82;;;-6.20;81.10;;;;;;5037474;28;20063;-73
2021/12/24 08:16:09;;;;;;;23.23;10.13;;;-6.20;81.30;;;;;;5051895;28;20051;-70
2021/12/24 08:18:36;;;;;;;10.57;5.15;;;-6.20;81.50;;;;;;5040280;28;20478;-70
2021/12/24 08:21:03;;;;;;;15.73;9.57;;;-6.20;81.70;;;;;;5050886;28;20033;-74
2021/12/24 08:23:28;;;;;;;14.07;8.43;;;-6.10;82.20;;;;;;5042015;28;20350;-72
2021/12/24 08:25:58;;;;;;;14.75;7.85;;;-6.10;82.50;;;;;;5038653;28;20064;-72
2021/12/24 08:28:24;;;;;;;12.38;6.90;;;-6.10;82.60;;;;;;5034026;28;20021;-73
2021/12/24 08:30:50;;;;;;;14.98;7.97;;;-6.10;82.90;;;;;;5033437;28;20048;-75
2021/12/24 08:33:16;;;;;;;14.90;7.40;;;-6.20;83.30;;;;;;5046201;28;20025;-71
2021/12/24 08:35:42;;;;;;;11.82;6.38;;;-6.10;83.60;;;;;;5045518;28;20569;-74
2021/12/24 08:38:08;;;;;;;17.88;9.93;;;-6.10;83.90;;;;;;5043094;28;20028;-73
2021/12/24 08:40:33;;;;;;;20.92;9.35;;;-6.10;84.20;;;;;;5037486;28;20387;-70
2021/12/24 08:43:00;;;;;;;14.25;8.63;;;-6.10;84.70;;;;;;5023325;28;20029;-73
2021/12/24 08:45:26;;;;;;;14.77;8.15;;;-6.00;85.30;;;;;;5039826;28;20153;-73
2021/12/24 08:47:52;;;;;;;10.88;7.63;;;-5.90;85.60;;;;;;5033573;28;20068;-76
2021/12/24 08:50:17;;;;;;;9.07;6.13;;;-5.80;85.60;;;;;;5036874;28;20029;-78
2021/12/24 08:52:45;;;;;;;8.18;6.00;;;-5.70;85.40;;;;;;5042984;28;20104;-75
2021/12/24 08:55:12;;;;;;;8.95;6.78;;;-5.70;85.10;;;;;;5047068;28;20117;-74
2021/12/24 08:57:39;;;;;;;16.90;7.97;;;-5.60;85.20;;;;;;5040163;28;20104;-76
2021/12/24 09:00:09;;;;;;;14.18;7.50;;;-5.50;85.10;;;;;;5052680;28;20032;-73
2021/12/24 09:02:36;;;;;;;12.95;7.85;;;-5.40;85.10;;;;;;5045957;28;20033;-73
2021/12/24 09:05:03;;;;;;;12.40;5.85;;;-5.40;84.80;;;;;;5043050;28;20033;-74
2021/12/24 09:07:29;;;;;;;10.07;7.38;;;-5.30;84.20;;;;;;5043257;28;20164;-72
2021/12/24 09:09:55;;;;;;;12.63;6.97;;;-5.30;84.30;;;;;;5033632;28;20033;-74
2021/12/24 09:12:21;;;;;;;11.88;6.63;;;-5.30;84.10;;;;;;5038052;28;20046;-74
2021/12/24 09:14:46;;;;;;;12.30;7.90;;;-5.30;84.30;;;;;;5047919;28;20124;-72
2021/12/24 09:17:12;;;;;;;16.73;7.25;;;-5.20;84.40;;;;;;5052704;28;20112;-74
2021/12/24 09:19:45;;;;;;;12.98;8.88;;;-5.20;84.00;;;;;;5049880;28;20028;-77
2021/12/24 09:22:16;;;;;;;11.57;6.55;;;-5.20;83.90;;;;;;5043301;28;20073;-73
2021/12/24 09:24:43;;;;;;;9.07;6.57;;;-5.20;83.30;;;;;;5049197;28;20075;-73
2021/12/24 09:27:09;;;;;;;13.30;7.68;;;-5.20;83.50;;;;;;5054602;28;20430;-72
2021/12/24 09:29:35;;;;;;;10.85;6.72;;;-5.20;83.40;;;;;;5042136;28;20021;-71
2021/12/24 09:32:01;;;;;;;12.07;6.78;;;-5.20;83.40;;;;;;5043635;28;20026;-71
2021/12/24 09:34:27;;;;;;;13.43;6.38;;;-5.20;83.90;;;;;;5043950;28;20028;-73
2021/12/24 09:36:53;;;;;;;12.20;6.45;;;-5.20;84.00;;;;;;5037130;28;20034;-73
2021/12/24 09:39:19;;;;;;;11.10;5.45;;;-5.20;83.70;;;;;;5053273;28;20033;-73
2021/12/24 09:41:45;;;;;;;11.10;6.45;;;-5.20;83.80;;;;;;5039490;28;20055;-72
2021/12/24 09:44:11;;;;;;;14.10;7.53;;;-5.10;84.80;;;;;;5046766;28;20481;-75
2021/12/24 09:46:41;;;;;;;11.13;8.25;;;-5.10;84.90;;;;;;5037888;28;20112;-73
2021/12/24 09:49:09;;;;;;;16.77;9.50;;;-5.00;85.00;;;;;;5043713;28;20112;-73
2021/12/24 09:51:41;;;;;;;22.23;12.00;;;-5.00;84.80;;;;;;5027084;28;20033;-74
2021/12/24 09:54:16;;;;;;;21.40;10.52;;;-5.00;85.00;;;;;;5037730;28;20026;-77
2021/12/24 09:56:43;;;;;;;23.50;10.60;;;-5.00;84.90;;;;;;5048692;28;20116;-71
2021/12/24 09:59:09;;;;;;;16.90;9.25;;;-4.90;84.90;;;;;;5051995;28;20032;-72
2021/12/24 10:01:37;;;;;;;14.85;8.38;;;-4.90;84.60;;;;;;5036694;28;20048;-72
2021/12/24 10:04:15;;;;;;;26.05;11.80;;;-4.90;84.30;;;;;;5050023;28;20021;-72
2021/12/24 10:07:17;;;;;;;15.38;8.77;;;-4.80;85.20;;;;;;5055295;28;20509;-72
2021/12/24 10:09:45;;;;;;;16.05;10.07;;;-4.60;85.90;;;;;;5035594;28;20036;-72
2021/12/24 10:12:14;;;;;;;21.15;11.70;;;-4.50;85.80;;;;;;5037655;28;20041;-72
2021/12/24 10:15:03;;;;;;;17.00;9.82;;;-4.40;85.60;;;;;;5050602;28;20462;-75
2021/12/24 10:17:32;;;;;;;16.65;8.20;;;-4.20;85.20;;;;;;5034096;28;20030;-71
2021/12/24 10:20:08;;;;;;;8.93;4.57;;;-4.10;84.00;;;;;;5035240;28;20029;-74
2021/12/24 10:22:54;;;;;;;12.25;6.80;;;-4.00;84.20;;;;;;5047772;28;20116;-70
2021/12/24 10:25:29;;;;;;;13.67;8.20;;;-3.80;83.60;;;;;;5046404;28;20498;-73
2021/12/24 10:27:56;;;;;;;;;;;-3.70;83.10;;;;;;5051746;28;20261;-72
2021/12/24 10:30:29;;;;;;;8.35;6.38;;;-3.70;82.30;;;;;;5044470;28;20359;-73
2021/12/24 10:32:57;;;;;;;16.65;8.55;;;-3.70;82.30;;;;;;5036732;28;20033;-72
2021/12/24 10:35:30;;;;;;;16.52;7.28;;;-3.70;82.70;;;;;;5044810;28;20035;-73
2021/12/24 10:38:25;;;;;;;11.48;8.20;;;-3.70;82.30;;;;;;5036243;28;20096;-73
2021/12/24 10:40:55;;;;;;;16.75;8.73;;;-3.70;82.20;;;;;;5040765;28;20063;-73
2021/12/24 10:43:36;;;;;;;10.90;5.68;;;-3.70;82.80;;;;;;5041866;28;20061;-72
2021/12/24 10:46:15;;;;;;;12.77;7.85;;;-3.70;82.80;;;;;;5046012;28;20018;-69
2021/12/24 10:48:59;;;;;;;12.05;6.82;;;-3.70;83.00;;;;;;5039150;28;20112;-72
2021/12/24 10:51:53;;;;;;;11.48;7.25;;;-3.70;83.10;;;;;;5039585;28;20486;-74
2021/12/24 10:54:11;;;;;;;11.35;6.25;;;-3.70;82.80;;;;;;5034724;28;20495;-75
2021/12/24 10:56:36;;;;;;;12.52;7.30;;;-3.70;83.00;;;;;;5034627;28;20124;-74
2021/12/24 10:59:02;;;;;;;22.73;7.22;;;-3.80;83.20;;;;;;5049303;28;20383;-72
2021/12/24 11:01:28;;;;;;;8.82;4.85;;;-3.80;83.60;;;;;;5034687;28;20034;-73
2021/12/24 11:03:54;;;;;;;11.48;7.70;;;-3.80;83.80;;;;;;5036224;28;20100;-76
2021/12/24 11:06:21;;;;;;;10.77;5.97;;;-3.80;83.90;;;;;;5043814;28;20029;-74
2021/12/24 11:08:54;;;;;;;16.77;9.85;;;-3.80;83.80;;;;;;5044486;28;20029;-72
2021/12/24 11:11:20;;;;;;;12.13;6.47;;;-3.80;84.30;;;;;;5006194;28;1133563;-74
2021/12/24 11:13:47;;;;;;;12.90;7.97;;;-3.80;84.60;;;;;;5050618;28;20462;-72
2021/12/24 11:16:19;;;;;;;14.82;8.02;;;-3.80;84.80;;;;;;5051883;28;20044;-71
2021/12/24 11:18:53;;;;;;;16.27;8.60;;;-3.70;85.10;;;;;;5037497;28;20037;-72
2021/12/24 11:21:22;;;;;;;12.70;7.18;;;-3.60;85.70;;;;;;5037728;28;20033;-73
2021/12/24 11:23:48;;;;;;;17.42;7.93;;;-3.60;85.10;;;;;;5034765;28;20033;-69
2021/12/24 11:26:18;;;;;;;9.05;5.60;;;-3.60;84.60;;;;;;5045644;28;20033;-72
2021/12/24 11:28:45;;;;;;;20.08;9.43;;;-3.60;84.50;;;;;;5044656;28;20021;-72
2021/12/24 11:31:17;;;;;;;12.45;7.10;;;-3.60;84.50;;;;;;5045267;28;20439;-72
2021/12/24 11:33:44;;;;;;;17.05;8.18;;;-3.60;84.50;;;;;;5037095;28;20121;-72
2021/12/24 11:36:13;;;;;;;9.88;6.53;;;-3.40;85.90;;;;;;5034617;28;20025;-70
2021/12/24 11:38:48;;;;;;;9.90;6.28;;;-3.20;85.00;;;;;;5041404;28;20043;-72
2021/12/24 11:41:17;;;;;;;17.55;8.65;;;-3.00;84.80;;;;;;5053487;28;20040;-72
2021/12/24 11:43:48;;;;;;;12.82;7.00;;;-2.80;84.80;;;;;;5043344;28;20472;-72
2021/12/24 11:46:16;;;;;;;11.20;6.63;;;-2.80;83.40;;;;;;5040716;28;20075;-77
2021/12/24 11:48:43;;;;;;;13.63;7.30;;;-2.80;82.30;;;;;;5037045;28;20079;-71
2021/12/24 11:51:17;;;;;;;8.00;4.65;;;-2.80;82.20;;;;;;5035742;28;20033;-70
2021/12/24 11:53:43;;;;;;;8.45;4.93;;;-3.00;81.50;;;;;;5047885;28;20052;-74
2021/12/24 11:56:13;;;;;;;13.07;7.90;;;-3.10;81.70;;;;;;5048815;28;20088;-71
2021/12/24 11:58:50;;;;;;;9.63;6.40;;;-3.10;82.30;;;;;;5049081;28;20120;-73
2021/12/24 12:01:18;;;;;;;22.10;10.07;;;-3.10;82.50;;;;;;5034461;28;20077;-75
2021/12/24 12:03:52;;;;;;;16.80;7.82;;;-3.00;82.90;;;;;;5038264;28;20013;-73
2021/12/24 12:06:20;;;;;;;14.65;7.15;;;-3.00;82.90;;;;;;5040844;28;20082;-73
2021/12/24 12:08:50;;;;;;;16.63;8.15;;;-2.90;82.80;;;;;;5053108;28;20025;-72
2021/12/24 12:11:20;;;;;;;10.95;6.93;;;-2.90;82.20;;;;;;5046190;28;20534;-71
2021/12/24 12:14:01;;;;;;;11.18;6.88;;;-2.90;81.70;;;;;;5041812;28;20063;-80
2021/12/24 12:16:39;;;;;;;11.60;6.53;;;-3.00;81.50;;;;;;5048359;28;20052;-73
2021/12/24 12:19:27;;;;;;;7.72;5.22;;;-3.00;81.60;;;;;;5047449;28;20040;-70
2021/12/24 12:25:00;;;;;;;11.82;4.50;;;-3.10;81.40;;;;;;5052615;28;20030;-72
2021/12/24 12:27:37;;;;;;;10.95;5.80;;;-3.20;81.60;;;;;;5048128;28;20032;-72
2021/12/24 12:30:24;;;;;;;14.30;7.28;;;-3.20;81.90;;;;;;5048367;28;20026;-75
2021/12/24 12:32:53;;;;;;;16.15;8.57;;;-3.20;81.90;;;;;;5034166;28;20047;-74
2021/12/24 12:35:19;;;;;;;14.02;9.25;;;-3.20;81.90;;;;;;5053855;28;20108;-73
2021/12/24 12:37:53;;;;;;;15.68;8.95;;;-3.20;82.30;;;;;;5034997;28;20037;-74
2021/12/24 12:40:19;;;;;;;23.10;12.88;;;-3.20;82.20;;;;;;5040291;28;20033;-73
2021/12/24 12:42:56;;;;;;;21.10;10.00;;;-3.20;82.30;;;;;;5035071;28;20483;-73
2021/12/24 12:45:47;;;;;;;20.40;10.52;;;-3.20;82.40;;;;;;5034563;28;20079;-71
2021/12/24 12:48:23;;;;;;;14.45;7.32;;;-3.20;82.40;;;;;;5038237;28;20116;-72
2021/12/24 12:50:56;;;;;;;10.73;7.30;;;-3.20;82.50;;;;;;5050822;28;20040;-73
2021/12/24 12:53:22;;;;;;;12.15;7.43;;;-3.20;82.40;;;;;;5053268;28;20021;-72
2021/12/24 12:55:49;;;;;;;13.70;7.35;;;-3.20;82.50;;;;;;5041821;28;20053;-73
2021/12/24 12:58:20;;;;;;;13.75;7.70;;;-3.20;82.50;;;;;;5036214;28;20037;-74
2021/12/24 13:01:10;;;;;;;17.92;9.85;;;-3.20;82.50;;;;;;5035299;28;20384;-72
2021/12/24 13:03:57;;;;;;;20.80;11.73;;;-3.20;82.50;;;;;;5036508;28;20021;-74
2021/12/24 13:06:36;;;;;;;8.38;5.45;;;-3.20;82.50;;;;;;5038691;28;20021;-73
2021/12/24 13:09:04;;;;;;;14.43;6.35;;;-3.20;82.60;;;;;;5034487;28;20025;-73
2021/12/24 13:11:35;;;;;;;9.45;6.10;;;-3.20;82.60;;;;;;5040621;28;20146;-74
2021/12/24 13:14:02;;;;;;;10.40;5.05;;;-3.20;82.70;;;;;;5038878;28;20041;-71
2021/12/24 13:16:44;;;;;;;18.73;7.65;;;-3.20;82.90;;;;;;5053202;28;20075;-74
2021/12/24 13:24:53;;;;;;;25.42;9.82;;;-3.20;83.00;;;;;;5049888;28;20069;-65
2021/12/24 13:27:23;;;;;;;19.20;6.35;;;-3.20;83.10;;;;;;5047672;28;20112;-69
2021/12/24 13:30:02;;;;;;;18.90;9.50;;;-3.20;83.10;;;;;;5046516;28;20095;-68
2021/12/24 13:32:28;;;;;;;30.58;14.00;;;-3.20;83.00;;;;;;5047812;28;20025;-68
2021/12/24 13:34:57;;;;;;;9.93;5.82;;;-3.20;83.10;;;;;;5043610;28;20097;-69
2021/12/24 13:37:29;;;;;;;6.68;3.75;;;-3.10;83.30;;;;;;5047981;28;20414;-70
2021/12/24 13:39:55;;;;;;;5.03;3.53;;;-3.10;83.40;;;;;;5041093;28;20025;-69
2021/12/24 13:42:20;;;;;;;15.10;7.68;;;-3.10;83.20;;;;;;5046361;28;20124;-76
2021/12/24 13:44:48;;;;;;;5.97;3.65;;;-3.10;83.40;;;;;;5046301;28;20057;-74
2021/12/24 13:47:26;;;;;;;6.55;4.25;;;-3.00;83.60;;;;;;5039579;28;20446;-73
2021/12/24 13:55:26;;;;;;;13.38;7.18;;;-2.90;83.40;;;;;;5045951;28;20434;-69
2021/12/24 13:58:12;;;;;;;8.02;5.57;;;-2.90;83.30;;;;;;5043435;28;20053;-68
2021/12/24 14:00:51;;;;;;;7.63;4.10;;;-2.90;83.60;;;;;;5037147;28;20052;-69
2021/12/24 14:03:21;;;;;;;7.05;4.57;;;-2.90;83.90;;;;;;5032148;28;20026;-72
2021/12/24 14:05:48;;;;;;;5.63;3.75;;;-2.80;83.90;;;;;;5045545;28;20032;-69
2021/12/24 14:08:23;;;;;;;9.00;5.35;;;-2.90;83.90;;;;;;5054117;28;20021;-69
2021/12/24 14:10:59;;;;;;;9.85;6.60;;;-2.80;84.00;;;;;;5053032;28;20055;-68
2021/12/24 14:13:29;;;;;;;6.65;5.18;;;-2.80;84.10;;;;;;5049508;28;20391;-69
2021/12/24 14:24:14;;;;;;;16.33;8.52;;;-2.80;84.80;;;;;;5038186;28;20037;-69
2021/12/24 14:26:50;;;;;;;12.32;6.32;;;-2.80;84.80;;;;;;5043168;28;20033;-69
2021/12/24 14:29:34;;;;;;;5.50;4.03;;;-2.70;85.00;;;;;;5046189;28;20074;-69
2021/12/24 14:32:03;;;;;;;15.65;5.43;;;-2.70;85.00;;;;;;5051031;28;20029;-67
2021/12/24 14:34:42;;;;;;;8.38;5.25;;;-2.70;85.20;;;;;;5049680;28;20033;-67
2021/12/24 14:37:33;;;;;;;11.10;5.70;;;-2.70;85.30;;;;;;5057891;28;20578;-68
2021/12/24 14:40:08;;;;;;;15.65;6.63;;;-2.60;85.20;;;;;;5041153;28;20030;-68
2021/12/24 14:42:36;;;;;;;13.03;7.90;;;-2.60;85.20;;;;;;5046009;28;20045;-67
2021/12/24 14:45:25;;;;;;;18.58;7.18;;;-2.60;85.30;;;;;;5037734;28;20163;-68
2021/12/24 14:48:06;;;;;;;22.67;9.13;;;-2.60;85.20;;;;;;5044765;28;20467;-67
2021/12/24 14:50:43;;;;;;;12.38;6.68;;;-2.50;85.30;;;;;;5057298;28;20029;-68
2021/12/24 14:53:26;;;;;;;14.88;6.85;;;-2.50;85.20;;;;;;5049451;28;20025;-68
2021/12/24 14:55:53;;;;;;;10.50;6.38;;;-2.50;85.20;;;;;;5036329;28;20032;-70